Kaiseimaru — JD2863 — position and weather

sailwx.info

Track history (hours):
 
Tides and Currents Weather Stations Pressure Air Temp Water Temp Dewpoint Dewpoint Depression Visibility Wind Speed Wind Dir Waves Ship Positions

Kaiseimaru

Last reported at 2018-Apr-23 05:30 UTC. Time now 2018-Apr-23 05:38 UTC.
Position N 34°35' E 135°16'.

Length 76 m; draft 4 m.

Type: Cargo ship. MMSI: 431000834.

Date/timePositionNaut miles runAvg speedWind from/ knotsBaromVisibWave heightAir tempDewpointWater temp
2018-Apr-23 05:30N 34°35' E 135°16'613.0
2018-Apr-23 05:00N 34°35' E 135°08'612.3
2018-Apr-23 04:30N 34°37' E 135°01'511.0
2018-Apr-23 04:00N 34°37' E 134°55'612.4
2018-Apr-23 03:30N 34°40' E 134°48'713.0
2018-Apr-23 03:00N 34°44' E 134°42'3 0.2
2018-Apr-22 10:54N 34°47' E 134°40'0 0.0
2018-Apr-22 09:48N 34°47' E 134°40'0 0.0
2018-Apr-22 09:30N 34°47' E 134°40'0 0.0
2018-Apr-22 08:51N 34°47' E 134°40'0 0.0
2018-Apr-22 05:18N 34°47' E 134°40'0 0.0
2018-Apr-22 04:54N 34°47' E 134°40'0 0.0
2018-Apr-21 22:48N 34°47' E 134°40'2 1.7
2018-Apr-21 21:28N 34°45' E 134°39'0 0.0
2018-Apr-21 21:00N 34°45' E 134°39'5 9.7
2018-Apr-21 20:30N 34°40' E 134°39'612.3
2018-Apr-21 20:00N 34°35' E 134°34'612.1
2018-Apr-21 19:30N 34°30' E 134°29'612.3
2018-Apr-21 19:00N 34°26' E 134°24'611.3
2018-Apr-21 18:30N 34°24' E 134°18'7911.0
2018-Apr-21 11:18N 34°01' E 132°46'411.4
2018-Apr-21 10:57N 33°58' E 132°43'510.7
2018-Apr-21 10:28N 33°54' E 132°38'711.3
2018-Apr-21 09:52N 33°50' E 132°33'411.4
2018-Apr-21 09:30N 33°47' E 132°29'611.3
2018-Apr-21 08:58N 33°42' E 132°24'511.7
2018-Apr-21 08:30N 33°38' E 132°20'612.1
2018-Apr-21 08:00N 33°34' E 132°15'611.8
2018-Apr-21 07:31N 33°30' E 132°10'611.3
2018-Apr-21 07:00N 33°26' E 132°05'610.9
2018-Apr-21 06:30N 33°22' E 132°00'15 0.7
2018-Apr-20 10:41N 33°07' E 132°00'212.4
2018-Apr-20 10:30N 33°07' E 132°03'32111.3
2018-Apr-19 05:59N 34°34' E 138°15'510.6
2018-Apr-19 05:29N 34°39' E 138°17'612.1
2018-Apr-19 05:00N 34°45' E 138°18'2 4.3
2018-Apr-19 04:29N 34°47' E 138°17'0 0.0
2018-Apr-19 03:34N 34°47' E 138°17'0 0.1
2018-Apr-19 03:28N 34°47' E 138°17'0 0.0
2018-Apr-19 02:58N 34°47' E 138°17'0 0.0
2018-Apr-19 02:16N 34°47' E 138°17'0 0.0
2018-Apr-18 22:31N 34°47' E 138°17'0 0.0
2018-Apr-18 22:01N 34°47' E 138°17'1 2.2
2018-Apr-18 21:42N 34°47' E 138°18'1 0.1
2018-Apr-18 12:58N 34°47' E 138°19'3 6.8
2018-Apr-18 12:30N 34°43' E 138°18'611.7
2018-Apr-18 12:00N 34°38' E 138°17'6910.6
2018-Apr-18 05:33N 34°37' E 136°54'211.6
2018-Apr-18 05:25N 34°38' E 136°53'511.6
2018-Apr-18 05:00N 34°42' E 136°49'612.0
2018-Apr-18 04:30N 34°47' E 136°46'612.1
2018-Apr-18 04:00N 34°53' E 136°43'510.8
2018-Apr-18 03:30N 34°57' E 136°39'1 1.0
2018-Apr-18 02:56N 34°57' E 136°38'0 0.0
2018-Apr-18 02:26N 34°57' E 136°38'0 0.0
2018-Apr-18 01:56N 34°57' E 136°38'0 0.1
2018-Apr-18 01:26N 34°57' E 136°38'0 0.1
2018-Apr-18 00:56N 34°57' E 136°38'0 0.0
2018-Apr-18 00:26N 34°57' E 136°38'0 0.0
2018-Apr-17 23:56N 34°57' E 136°38'0 0.0
2018-Apr-17 23:26N 34°57' E 136°38'0 0.0
2018-Apr-17 22:50N 34°57' E 136°38'1 1.8
2018-Apr-17 22:30N 34°57' E 136°39'1 2.3
2018-Apr-17 22:00N 34°57' E 136°41'0 0.0
2018-Apr-17 21:30N 34°57' E 136°41'0 0.0
2018-Apr-17 21:00N 34°57' E 136°41'0 0.0
2018-Apr-17 20:30N 34°57' E 136°41'0 0.0
2018-Apr-17 20:00N 34°57' E 136°41'0 0.0
2018-Apr-17 19:30N 34°57' E 136°41'0 0.1
2018-Apr-17 19:00N 34°57' E 136°41'0 0.0
2018-Apr-17 18:30N 34°57' E 136°41'0 0.0
2018-Apr-17 18:00N 34°57' E 136°41'0 0.0
2018-Apr-17 17:30N 34°57' E 136°41'0 0.1
2018-Apr-17 17:00N 34°57' E 136°41'0 0.0
2018-Apr-17 16:30N 34°57' E 136°41'0 0.0
2018-Apr-17 16:00N 34°57' E 136°41'0 0.0
2018-Apr-17 15:30N 34°57' E 136°41'0 0.0
2018-Apr-17 15:00N 34°57' E 136°41'0 0.0
2018-Apr-17 14:30N 34°57' E 136°41'3 6.1
2018-Apr-17 14:00N 34°54' E 136°42'613.0
2018-Apr-17 13:30N 34°49' E 136°46'612.6
2018-Apr-17 13:00N 34°44' E 136°50'812.2
2018-Apr-17 12:20N 34°37' E 136°56'1110.6
2018-Apr-17 11:15N 34°34' E 137°10'312.0
2018-Apr-17 10:58N 34°34' E 137°13'4812.9
2018-Apr-17 07:16N 34°34' E 138°11'513.0
2018-Apr-17 06:54N 34°36' E 138°17'512.4
2018-Apr-17 06:29N 34°40' E 138°20'712.6
2018-Apr-17 05:57N 34°46' E 138°24'612.7
2018-Apr-17 05:30N 34°51' E 138°27'612.9
2018-Apr-17 05:01N 34°57' E 138°31'5 9.6
2018-Apr-17 04:31N 35°01' E 138°31'2 3.5
2018-Apr-17 04:01N 35°00' E 138°30'0 0.0
2018-Apr-17 03:29N 35°00' E 138°30'0 0.0
2018-Apr-17 02:59N 35°00' E 138°30'0 0.0
2018-Apr-17 02:29N 35°00' E 138°30'0 0.0
2018-Apr-17 01:59N 35°00' E 138°30'0 0.0
2018-Apr-17 01:29N 35°00' E 138°30'0 0.0
2018-Apr-17 00:59N 35°00' E 138°30'0 0.0
2018-Apr-17 00:29N 35°00' E 138°30'0 0.0
2018-Apr-16 23:59N 35°00' E 138°30'0 0.0
2018-Apr-16 23:29N 35°00' E 138°30'0 0.0
2018-Apr-16 22:59N 35°00' E 138°30'0 0.0
2018-Apr-16 22:29N 35°00' E 138°30'2 3.2
2018-Apr-16 22:00N 35°01' E 138°30'0 0.0
2018-Apr-16 21:28N 35°01' E 138°30'0 0.0
2018-Apr-16 20:58N 35°01' E 138°30'0 0.0
2018-Apr-16 20:28N 35°01' E 138°30'0 0.0
2018-Apr-16 19:58N 35°01' E 138°30'0 0.1
2018-Apr-16 19:28N 35°01' E 138°30'0 0.0
2018-Apr-16 18:58N 35°01' E 138°30'0 0.0
2018-Apr-16 18:28N 35°01' E 138°30'0 0.0
2018-Apr-16 17:58N 35°01' E 138°30'0 0.1
2018-Apr-16 17:28N 35°01' E 138°30'0 0.0
2018-Apr-16 16:58N 35°01' E 138°30'0 0.0
2018-Apr-16 16:28N 35°01' E 138°30'0 0.0
2018-Apr-16 15:58N 35°01' E 138°30'0 0.0
2018-Apr-16 15:25N 35°01' E 138°30'0 0.0
2018-Apr-16 14:58N 35°01' E 138°30'0 0.0
2018-Apr-16 14:28N 35°01' E 138°30'0 0.0
2018-Apr-16 13:58N 35°01' E 138°30'0 0.0
2018-Apr-16 13:28N 35°01' E 138°30'0 0.0
2018-Apr-16 12:58N 35°02' E 138°30'0 0.0
2018-Apr-16 12:28N 35°01' E 138°30'0 0.0
2018-Apr-16 11:58N 35°02' E 138°30'0 0.0
2018-Apr-16 11:28N 35°01' E 138°30'3 6.3
2018-Apr-16 11:01N 34°59' E 138°33'611.8
2018-Apr-16 10:31N 34°54' E 138°30'612.4
2018-Apr-16 10:01N 34°49' E 138°26'612.2
2018-Apr-16 09:30N 34°43' E 138°22'612.5
2018-Apr-16 08:59N 34°38' E 138°18'7011.7
2018-Apr-16 02:59N 34°38' E 136°53'612.5
2018-Apr-16 02:30N 34°43' E 136°48'612.8
2018-Apr-16 02:00N 34°49' E 136°45'612.8
2018-Apr-16 01:31N 34°54' E 136°43'4 8.6
2018-Apr-16 01:01N 34°58' E 136°39'0 0.8
2018-Apr-16 00:25N 34°57' E 136°38'0 0.0
2018-Apr-15 18:13N 34°57' E 136°38'0 0.0
2018-Apr-15 17:37N 34°57' E 136°38'0 0.0
2018-Apr-15 17:19N 34°57' E 136°38'0 0.0
2018-Apr-15 16:55N 34°57' E 136°38'0 0.0
2018-Apr-15 16:25N 34°57' E 136°38'0 0.0
2018-Apr-15 15:55N 34°57' E 136°38'0 0.0
2018-Apr-15 15:25N 34°57' E 136°38'0 0.0
2018-Apr-15 14:55N 34°57' E 136°38'0 0.1
2018-Apr-15 14:25N 34°57' E 136°38'0 0.1
2018-Apr-15 13:55N 34°57' E 136°38'0 0.0
2018-Apr-15 13:25N 34°57' E 136°38'0 0.0
2018-Apr-15 12:55N 34°57' E 136°38'0 0.0
2018-Apr-15 12:25N 34°57' E 136°38'0 0.0
2018-Apr-15 11:55N 34°57' E 136°38'0 0.0
2018-Apr-15 08:13N 34°57' E 136°38'0 0.0
2018-Apr-15 07:55N 34°57' E 136°38'0 0.0
2018-Apr-15 06:49N 34°57' E 136°38'0 0.0
2018-Apr-15 06:25N 34°57' E 136°38'0 0.1
2018-Apr-15 05:58N 34°57' E 136°38'0 0.1
2018-Apr-15 05:28N 34°57' E 136°38'0 0.0
2018-Apr-15 04:55N 34°57' E 136°38'0 0.0
2018-Apr-15 04:25N 34°57' E 136°38'0 0.1
2018-Apr-15 03:55N 34°57' E 136°38'0 0.0
2018-Apr-15 03:25N 34°57' E 136°38'0 0.1
2018-Apr-15 02:58N 34°57' E 136°38'0 0.0
2018-Apr-15 02:25N 34°57' E 136°38'0 0.0
2018-Apr-15 01:55N 34°57' E 136°38'0 0.0
2018-Apr-15 01:25N 34°57' E 136°38'0 0.0
2018-Apr-15 00:55N 34°57' E 136°38'0 0.0
2018-Apr-15 00:28N 34°57' E 136°38'0 0.0
2018-Apr-14 23:55N 34°57' E 136°38'0 0.0
2018-Apr-14 23:25N 34°57' E 136°38'0 0.0
2018-Apr-14 23:01N 34°57' E 136°38'0 1.0
2018-Apr-14 22:30N 34°57' E 136°39'3 5.2
2018-Apr-14 22:00N 34°57' E 136°42'510.1
2018-Apr-14 21:30N 34°58' E 136°48'612.6
2018-Apr-14 21:00N 35°04' E 136°52'2 2.9
2018-Apr-14 20:28N 35°05' E 136°52'0 0.0
2018-Apr-14 19:58N 35°05' E 136°52'0 0.0
2018-Apr-14 19:28N 35°05' E 136°52'0 0.0
2018-Apr-14 18:58N 35°05' E 136°52'0 0.0
2018-Apr-14 18:28N 35°05' E 136°52'0 0.0
2018-Apr-14 17:58N 35°05' E 136°52'0 0.0
2018-Apr-14 17:28N 35°05' E 136°52'0 0.0
2018-Apr-14 16:58N 35°05' E 136°52'0 0.0
2018-Apr-14 16:25N 35°05' E 136°52'0 0.0
2018-Apr-14 15:58N 35°05' E 136°52'0 0.0
2018-Apr-14 15:28N 35°05' E 136°52'0 0.0
2018-Apr-14 14:58N 35°05' E 136°52'0 0.0
2018-Apr-14 14:28N 35°05' E 136°52'0 0.0
2018-Apr-14 13:58N 35°05' E 136°52'0 0.0
2018-Apr-14 13:28N 35°05' E 136°52'0 0.0
2018-Apr-14 12:58N 35°05' E 136°52'0 0.0
2018-Apr-14 12:28N 35°05' E 136°52'0 0.0
2018-Apr-14 11:58N 35°05' E 136°52'0 0.0
2018-Apr-14 11:28N 35°05' E 136°52'0 0.0
2018-Apr-14 10:58N 35°05' E 136°52'0 0.0
2018-Apr-14 10:28N 35°05' E 136°52'0 0.0
2018-Apr-14 09:58N 35°05' E 136°52'0 0.0
2018-Apr-14 09:28N 35°05' E 136°52'0 0.0
2018-Apr-14 08:58N 35°05' E 136°52'0 0.0
2018-Apr-14 08:28N 35°05' E 136°52'0 0.0
2018-Apr-14 07:58N 35°05' E 136°52'0 0.0
2018-Apr-14 07:28N 35°05' E 136°52'0 0.0
2018-Apr-14 06:58N 35°05' E 136°52'0 0.0
2018-Apr-14 06:28N 35°05' E 136°52'0 0.0
2018-Apr-14 05:58N 35°05' E 136°52'0 0.0
2018-Apr-14 05:28N 35°05' E 136°52'0 0.0
2018-Apr-14 04:58N 35°05' E 136°52'0 0.0
2018-Apr-14 04:28N 35°05' E 136°52'0 0.0
2018-Apr-14 03:58N 35°05' E 136°52'0 0.0
2018-Apr-14 03:28N 35°05' E 136°52'0 0.0
2018-Apr-14 02:58N 35°05' E 136°52'0 0.0
2018-Apr-14 02:28N 35°05' E 136°52'0 0.0
2018-Apr-14 01:58N 35°05' E 136°52'0 0.0
2018-Apr-14 01:28N 35°05' E 136°52'0 0.0
2018-Apr-14 00:58N 35°05' E 136°52'0 0.0
2018-Apr-14 00:28N 35°05' E 136°52'0 0.0
2018-Apr-13 23:58N 35°05' E 136°52'0 0.0
2018-Apr-13 23:28N 35°05' E 136°52'0 0.0
2018-Apr-13 22:58N 35°05' E 136°52'0 0.0
2018-Apr-13 22:28N 35°05' E 136°52'0 0.0
2018-Apr-13 21:52N 35°05' E 136°52'0 0.0
2018-Apr-13 21:28N 35°05' E 136°52'0 0.0
2018-Apr-13 20:58N 35°05' E 136°52'0 0.0
2018-Apr-13 20:28N 35°05' E 136°52'0 0.0
2018-Apr-13 19:58N 35°05' E 136°52'0 0.0
2018-Apr-13 19:28N 35°05' E 136°52'0 0.0
2018-Apr-13 18:58N 35°05' E 136°52'0 0.0
2018-Apr-13 18:28N 35°05' E 136°52'0 0.0
2018-Apr-13 17:58N 35°05' E 136°52'0 0.0
2018-Apr-13 17:28N 35°05' E 136°52'0 0.0
2018-Apr-13 16:58N 35°05' E 136°52'0 0.0
2018-Apr-13 16:28N 35°05' E 136°52'0 0.0
2018-Apr-13 15:58N 35°05' E 136°52'0 0.0
2018-Apr-13 15:28N 35°05' E 136°52'0 0.0
2018-Apr-13 14:58N 35°05' E 136°52'0 0.0
2018-Apr-13 14:28N 35°05' E 136°52'0 0.0
2018-Apr-13 13:58N 35°05' E 136°52'0 0.0
2018-Apr-13 13:28N 35°05' E 136°52'0 0.0
2018-Apr-13 12:58N 35°05' E 136°52'0 0.0
2018-Apr-13 12:28N 35°05' E 136°52'0 0.0
2018-Apr-13 11:58N 35°05' E 136°52'0 0.0
2018-Apr-13 11:28N 35°05' E 136°52'0 0.0
2018-Apr-13 10:58N 35°05' E 136°52'0 0.0
2018-Apr-13 10:28N 35°05' E 136°52'0 0.0
2018-Apr-13 09:58N 35°05' E 136°52'0 0.0
2018-Apr-13 09:28N 35°05' E 136°52'0 0.0
2018-Apr-13 08:58N 35°05' E 136°52'0 0.0
2018-Apr-13 08:28N 35°05' E 136°52'0 0.0
2018-Apr-13 07:58N 35°05' E 136°52'0 0.0
2018-Apr-13 07:28N 35°05' E 136°52'0 0.0
2018-Apr-13 06:58N 35°05' E 136°52'0 0.0
2018-Apr-13 06:28N 35°05' E 136°52'0 0.0
2018-Apr-13 05:58N 35°05' E 136°52'  
Track history (hours):
 
Tides and Currents Weather Stations Pressure Air Temp Water Temp Dewpoint Dewpoint Depression Visibility Wind Speed Wind Dir Waves Ship Positions

Kaiseimaru

Last reported at 2018-Apr-23 05:30 UTC. Time now 2018-Apr-23 05:38 UTC.
Position N 34°35' E 135°16'.

Length 76 m; draft 4 m.

Type: Cargo ship. MMSI: 431000834.

Date/timePositionNaut miles runAvg speedWind from/ knotsBaromVisibWave heightAir tempDewpointWater temp
2018-Apr-23 05:30N 34°35' E 135°16'613.0
2018-Apr-23 05:00N 34°35' E 135°08'612.3
2018-Apr-23 04:30N 34°37' E 135°01'511.0
2018-Apr-23 04:00N 34°37' E 134°55'612.4
2018-Apr-23 03:30N 34°40' E 134°48'713.0
2018-Apr-23 03:00N 34°44' E 134°42'3 0.2
2018-Apr-22 10:54N 34°47' E 134°40'0 0.0
2018-Apr-22 09:48N 34°47' E 134°40'0 0.0
2018-Apr-22 09:30N 34°47' E 134°40'0 0.0
2018-Apr-22 08:51N 34°47' E 134°40'0 0.0
2018-Apr-22 05:18N 34°47' E 134°40'0 0.0
2018-Apr-22 04:54N 34°47' E 134°40'0 0.0
2018-Apr-21 22:48N 34°47' E 134°40'2 1.7
2018-Apr-21 21:28N 34°45' E 134°39'0 0.0
2018-Apr-21 21:00N 34°45' E 134°39'5 9.7
2018-Apr-21 20:30N 34°40' E 134°39'612.3
2018-Apr-21 20:00N 34°35' E 134°34'612.1
2018-Apr-21 19:30N 34°30' E 134°29'612.3
2018-Apr-21 19:00N 34°26' E 134°24'611.3
2018-Apr-21 18:30N 34°24' E 134°18'7911.0
2018-Apr-21 11:18N 34°01' E 132°46'411.4
2018-Apr-21 10:57N 33°58' E 132°43'510.7
2018-Apr-21 10:28N 33°54' E 132°38'711.3
2018-Apr-21 09:52N 33°50' E 132°33'411.4
2018-Apr-21 09:30N 33°47' E 132°29'611.3
2018-Apr-21 08:58N 33°42' E 132°24'511.7
2018-Apr-21 08:30N 33°38' E 132°20'612.1
2018-Apr-21 08:00N 33°34' E 132°15'611.8
2018-Apr-21 07:31N 33°30' E 132°10'611.3
2018-Apr-21 07:00N 33°26' E 132°05'610.9
2018-Apr-21 06:30N 33°22' E 132°00'15 0.7
2018-Apr-20 10:41N 33°07' E 132°00'212.4
2018-Apr-20 10:30N 33°07' E 132°03'32111.3
2018-Apr-19 05:59N 34°34' E 138°15'510.6
2018-Apr-19 05:29N 34°39' E 138°17'612.1
2018-Apr-19 05:00N 34°45' E 138°18'2 4.3
2018-Apr-19 04:29N 34°47' E 138°17'0 0.0
2018-Apr-19 03:34N 34°47' E 138°17'0 0.1
2018-Apr-19 03:28N 34°47' E 138°17'0 0.0
2018-Apr-19 02:58N 34°47' E 138°17'0 0.0
2018-Apr-19 02:16N 34°47' E 138°17'0 0.0
2018-Apr-18 22:31N 34°47' E 138°17'0 0.0
2018-Apr-18 22:01N 34°47' E 138°17'1 2.2
2018-Apr-18 21:42N 34°47' E 138°18'1 0.1
2018-Apr-18 12:58N 34°47' E 138°19'3 6.8
2018-Apr-18 12:30N 34°43' E 138°18'611.7
2018-Apr-18 12:00N 34°38' E 138°17'6910.6
2018-Apr-18 05:33N 34°37' E 136°54'211.6
2018-Apr-18 05:25N 34°38' E 136°53'511.6
2018-Apr-18 05:00N 34°42' E 136°49'612.0
2018-Apr-18 04:30N 34°47' E 136°46'612.1
2018-Apr-18 04:00N 34°53' E 136°43'510.8
2018-Apr-18 03:30N 34°57' E 136°39'1 1.0
2018-Apr-18 02:56N 34°57' E 136°38'0 0.0
2018-Apr-18 02:26N 34°57' E 136°38'0 0.0
2018-Apr-18 01:56N 34°57' E 136°38'0 0.1
2018-Apr-18 01:26N 34°57' E 136°38'0 0.1
2018-Apr-18 00:56N 34°57' E 136°38'0 0.0
2018-Apr-18 00:26N 34°57' E 136°38'0 0.0
2018-Apr-17 23:56N 34°57' E 136°38'0 0.0
2018-Apr-17 23:26N 34°57' E 136°38'0 0.0
2018-Apr-17 22:50N 34°57' E 136°38'1 1.8
2018-Apr-17 22:30N 34°57' E 136°39'1 2.3
2018-Apr-17 22:00N 34°57' E 136°41'0 0.0
2018-Apr-17 21:30N 34°57' E 136°41'0 0.0
2018-Apr-17 21:00N 34°57' E 136°41'0 0.0
2018-Apr-17 20:30N 34°57' E 136°41'0 0.0
2018-Apr-17 20:00N 34°57' E 136°41'0 0.0
2018-Apr-17 19:30N 34°57' E 136°41'0 0.1
2018-Apr-17 19:00N 34°57' E 136°41'0 0.0
2018-Apr-17 18:30N 34°57' E 136°41'0 0.0
2018-Apr-17 18:00N 34°57' E 136°41'0 0.0
2018-Apr-17 17:30N 34°57' E 136°41'0 0.1
2018-Apr-17 17:00N 34°57' E 136°41'0 0.0
2018-Apr-17 16:30N 34°57' E 136°41'0 0.0
2018-Apr-17 16:00N 34°57' E 136°41'0 0.0
2018-Apr-17 15:30N 34°57' E 136°41'0 0.0
2018-Apr-17 15:00N 34°57' E 136°41'0 0.0
2018-Apr-17 14:30N 34°57' E 136°41'3 6.1
2018-Apr-17 14:00N 34°54' E 136°42'613.0
2018-Apr-17 13:30N 34°49' E 136°46'612.6
2018-Apr-17 13:00N 34°44' E 136°50'812.2
2018-Apr-17 12:20N 34°37' E 136°56'1110.6
2018-Apr-17 11:15N 34°34' E 137°10'312.0
2018-Apr-17 10:58N 34°34' E 137°13'4812.9
2018-Apr-17 07:16N 34°34' E 138°11'513.0
2018-Apr-17 06:54N 34°36' E 138°17'512.4
2018-Apr-17 06:29N 34°40' E 138°20'712.6
2018-Apr-17 05:57N 34°46' E 138°24'612.7
2018-Apr-17 05:30N 34°51' E 138°27'612.9
2018-Apr-17 05:01N 34°57' E 138°31'5 9.6
2018-Apr-17 04:31N 35°01' E 138°31'2 3.5
2018-Apr-17 04:01N 35°00' E 138°30'0 0.0
2018-Apr-17 03:29N 35°00' E 138°30'0 0.0
2018-Apr-17 02:59N 35°00' E 138°30'0 0.0
2018-Apr-17 02:29N 35°00' E 138°30'0 0.0
2018-Apr-17 01:59N 35°00' E 138°30'0 0.0
2018-Apr-17 01:29N 35°00' E 138°30'0 0.0
2018-Apr-17 00:59N 35°00' E 138°30'0 0.0
2018-Apr-17 00:29N 35°00' E 138°30'0 0.0
2018-Apr-16 23:59N 35°00' E 138°30'0 0.0
2018-Apr-16 23:29N 35°00' E 138°30'0 0.0
2018-Apr-16 22:59N 35°00' E 138°30'0 0.0
2018-Apr-16 22:29N 35°00' E 138°30'2 3.2
2018-Apr-16 22:00N 35°01' E 138°30'0 0.0
2018-Apr-16 21:28N 35°01' E 138°30'0 0.0
2018-Apr-16 20:58N 35°01' E 138°30'0 0.0
2018-Apr-16 20:28N 35°01' E 138°30'0 0.0
2018-Apr-16 19:58N 35°01' E 138°30'0 0.1
2018-Apr-16 19:28N 35°01' E 138°30'0 0.0
2018-Apr-16 18:58N 35°01' E 138°30'0 0.0
2018-Apr-16 18:28N 35°01' E 138°30'0 0.0
2018-Apr-16 17:58N 35°01' E 138°30'0 0.1
2018-Apr-16 17:28N 35°01' E 138°30'0 0.0
2018-Apr-16 16:58N 35°01' E 138°30'0 0.0
2018-Apr-16 16:28N 35°01' E 138°30'0 0.0
2018-Apr-16 15:58N 35°01' E 138°30'0 0.0
2018-Apr-16 15:25N 35°01' E 138°30'0 0.0
2018-Apr-16 14:58N 35°01' E 138°30'0 0.0
2018-Apr-16 14:28N 35°01' E 138°30'0 0.0
2018-Apr-16 13:58N 35°01' E 138°30'0 0.0
2018-Apr-16 13:28N 35°01' E 138°30'0 0.0
2018-Apr-16 12:58N 35°02' E 138°30'0 0.0
2018-Apr-16 12:28N 35°01' E 138°30'0 0.0
2018-Apr-16 11:58N 35°02' E 138°30'0 0.0
2018-Apr-16 11:28N 35°01' E 138°30'3 6.3
2018-Apr-16 11:01N 34°59' E 138°33'611.8
2018-Apr-16 10:31N 34°54' E 138°30'612.4
2018-Apr-16 10:01N 34°49' E 138°26'612.2
2018-Apr-16 09:30N 34°43' E 138°22'612.5
2018-Apr-16 08:59N 34°38' E 138°18'7011.7
2018-Apr-16 02:59N 34°38' E 136°53'612.5
2018-Apr-16 02:30N 34°43' E 136°48'612.8
2018-Apr-16 02:00N 34°49' E 136°45'612.8
2018-Apr-16 01:31N 34°54' E 136°43'4 8.6
2018-Apr-16 01:01N 34°58' E 136°39'0 0.8
2018-Apr-16 00:25N 34°57' E 136°38'0 0.0
2018-Apr-15 18:13N 34°57' E 136°38'0 0.0
2018-Apr-15 17:37N 34°57' E 136°38'0 0.0
2018-Apr-15 17:19N 34°57' E 136°38'0 0.0
2018-Apr-15 16:55N 34°57' E 136°38'0 0.0
2018-Apr-15 16:25N 34°57' E 136°38'0 0.0
2018-Apr-15 15:55N 34°57' E 136°38'0 0.0
2018-Apr-15 15:25N 34°57' E 136°38'0 0.0
2018-Apr-15 14:55N 34°57' E 136°38'0 0.1
2018-Apr-15 14:25N 34°57' E 136°38'0 0.1
2018-Apr-15 13:55N 34°57' E 136°38'0 0.0
2018-Apr-15 13:25N 34°57' E 136°38'0 0.0
2018-Apr-15 12:55N 34°57' E 136°38'0 0.0
2018-Apr-15 12:25N 34°57' E 136°38'0 0.0
2018-Apr-15 11:55N 34°57' E 136°38'0 0.0
2018-Apr-15 08:13N 34°57' E 136°38'0 0.0
2018-Apr-15 07:55N 34°57' E 136°38'0 0.0
2018-Apr-15 06:49N 34°57' E 136°38'0 0.0
2018-Apr-15 06:25N 34°57' E 136°38'0 0.1
2018-Apr-15 05:58N 34°57' E 136°38'0 0.1
2018-Apr-15 05:28N 34°57' E 136°38'0 0.0
2018-Apr-15 04:55N 34°57' E 136°38'0 0.0
2018-Apr-15 04:25N 34°57' E 136°38'0 0.1
2018-Apr-15 03:55N 34°57' E 136°38'0 0.0
2018-Apr-15 03:25N 34°57' E 136°38'0 0.1
2018-Apr-15 02:58N 34°57' E 136°38'0 0.0
2018-Apr-15 02:25N 34°57' E 136°38'0 0.0
2018-Apr-15 01:55N 34°57' E 136°38'0 0.0
2018-Apr-15 01:25N 34°57' E 136°38'0 0.0
2018-Apr-15 00:55N 34°57' E 136°38'0 0.0
2018-Apr-15 00:28N 34°57' E 136°38'0 0.0
2018-Apr-14 23:55N 34°57' E 136°38'0 0.0
2018-Apr-14 23:25N 34°57' E 136°38'0 0.0
2018-Apr-14 23:01N 34°57' E 136°38'0 1.0
2018-Apr-14 22:30N 34°57' E 136°39'3 5.2
2018-Apr-14 22:00N 34°57' E 136°42'510.1
2018-Apr-14 21:30N 34°58' E 136°48'612.6
2018-Apr-14 21:00N 35°04' E 136°52'2 2.9
2018-Apr-14 20:28N 35°05' E 136°52'0 0.0
2018-Apr-14 19:58N 35°05' E 136°52'0 0.0
2018-Apr-14 19:28N 35°05' E 136°52'0 0.0
2018-Apr-14 18:58N 35°05' E 136°52'0 0.0
2018-Apr-14 18:28N 35°05' E 136°52'0 0.0
2018-Apr-14 17:58N 35°05' E 136°52'0 0.0
2018-Apr-14 17:28N 35°05' E 136°52'0 0.0
2018-Apr-14 16:58N 35°05' E 136°52'0 0.0
2018-Apr-14 16:25N 35°05' E 136°52'0 0.0
2018-Apr-14 15:58N 35°05' E 136°52'0 0.0
2018-Apr-14 15:28N 35°05' E 136°52'0 0.0
2018-Apr-14 14:58N 35°05' E 136°52'0 0.0
2018-Apr-14 14:28N 35°05' E 136°52'0 0.0
2018-Apr-14 13:58N 35°05' E 136°52'0 0.0
2018-Apr-14 13:28N 35°05' E 136°52'0 0.0
2018-Apr-14 12:58N 35°05' E 136°52'0 0.0
2018-Apr-14 12:28N 35°05' E 136°52'0 0.0
2018-Apr-14 11:58N 35°05' E 136°52'0 0.0
2018-Apr-14 11:28N 35°05' E 136°52'0 0.0
2018-Apr-14 10:58N 35°05' E 136°52'0 0.0
2018-Apr-14 10:28N 35°05' E 136°52'0 0.0
2018-Apr-14 09:58N 35°05' E 136°52'0 0.0
2018-Apr-14 09:28N 35°05' E 136°52'0 0.0
2018-Apr-14 08:58N 35°05' E 136°52'0 0.0
2018-Apr-14 08:28N 35°05' E 136°52'0 0.0
2018-Apr-14 07:58N 35°05' E 136°52'0 0.0
2018-Apr-14 07:28N 35°05' E 136°52'0 0.0
2018-Apr-14 06:58N 35°05' E 136°52'0 0.0
2018-Apr-14 06:28N 35°05' E 136°52'0 0.0
2018-Apr-14 05:58N 35°05' E 136°52'0 0.0
2018-Apr-14 05:28N 35°05' E 136°52'0 0.0
2018-Apr-14 04:58N 35°05' E 136°52'0 0.0
2018-Apr-14 04:28N 35°05' E 136°52'0 0.0
2018-Apr-14 03:58N 35°05' E 136°52'0 0.0
2018-Apr-14 03:28N 35°05' E 136°52'0 0.0
2018-Apr-14 02:58N 35°05' E 136°52'0 0.0
2018-Apr-14 02:28N 35°05' E 136°52'0 0.0
2018-Apr-14 01:58N 35°05' E 136°52'0 0.0
2018-Apr-14 01:28N 35°05' E 136°52'0 0.0
2018-Apr-14 00:58N 35°05' E 136°52'0 0.0
2018-Apr-14 00:28N 35°05' E 136°52'0 0.0
2018-Apr-13 23:58N 35°05' E 136°52'0 0.0
2018-Apr-13 23:28N 35°05' E 136°52'0 0.0
2018-Apr-13 22:58N 35°05' E 136°52'0 0.0
2018-Apr-13 22:28N 35°05' E 136°52'0 0.0
2018-Apr-13 21:52N 35°05' E 136°52'0 0.0
2018-Apr-13 21:28N 35°05' E 136°52'0 0.0
2018-Apr-13 20:58N 35°05' E 136°52'0 0.0
2018-Apr-13 20:28N 35°05' E 136°52'0 0.0
2018-Apr-13 19:58N 35°05' E 136°52'0 0.0
2018-Apr-13 19:28N 35°05' E 136°52'0 0.0
2018-Apr-13 18:58N 35°05' E 136°52'0 0.0
2018-Apr-13 18:28N 35°05' E 136°52'0 0.0
2018-Apr-13 17:58N 35°05' E 136°52'0 0.0
2018-Apr-13 17:28N 35°05' E 136°52'0 0.0
2018-Apr-13 16:58N 35°05' E 136°52'0 0.0
2018-Apr-13 16:28N 35°05' E 136°52'0 0.0
2018-Apr-13 15:58N 35°05' E 136°52'0 0.0
2018-Apr-13 15:28N 35°05' E 136°52'0 0.0
2018-Apr-13 14:58N 35°05' E 136°52'0 0.0
2018-Apr-13 14:28N 35°05' E 136°52'0 0.0
2018-Apr-13 13:58N 35°05' E 136°52'0 0.0
2018-Apr-13 13:28N 35°05' E 136°52'0 0.0
2018-Apr-13 12:58N 35°05' E 136°52'0 0.0
2018-Apr-13 12:28N 35°05' E 136°52'0 0.0
2018-Apr-13 11:58N 35°05' E 136°52'0 0.0
2018-Apr-13 11:28N 35°05' E 136°52'0 0.0
2018-Apr-13 10:58N 35°05' E 136°52'0 0.0
2018-Apr-13 10:28N 35°05' E 136°52'0 0.0
2018-Apr-13 09:58N 35°05' E 136°52'0 0.0
2018-Apr-13 09:28N 35°05' E 136°52'0 0.0
2018-Apr-13 08:58N 35°05' E 136°52'0 0.0
2018-Apr-13 08:28N 35°05' E 136°52'0 0.0
2018-Apr-13 07:58N 35°05' E 136°52'0 0.0
2018-Apr-13 07:28N 35°05' E 136°52'0 0.0
2018-Apr-13 06:58N 35°05' E 136°52'0 0.0
2018-Apr-13 06:28N 35°05' E 136°52'0 0.0
2018-Apr-13 05:58N 35°05' E 136°52'  

Dump ship's entire track history